Weather History for Charlevoix, MI

Change the Weather History Date:

Saturday, November 17, 2012

  Actual Average Record
Temperature  
Mean Temperature 36 °F -  
Max Temperature 46 °F 37 °F 59 °F (2001)
Min Temperature 28 °F 33 °F 19 °F (2014)
Degree Days  
Heating Degree Days 28    
Moisture  
Dew Point 32 °F    
Average Humidity 91    
Maximum Humidity 99    
Minimum Humidity 66    
Precipitation  
Precipitation 0.00 in - - ()
Sea Level Pressure  
Sea Level Pressure 30.53 in    
Wind  
Wind Speed 4 mph (SE)    
Max Wind Speed 7 mph    
Max Gust Speed -    
Visibility 6 miles    
Events Fog    
Averages and records for this station are not official NWS values.
T = Trace of Precipitation, MM = Missing Value Source: NWS Daily Summary

Daily Weather History Graph

Daily Weather History Graph

Search for Another Location

Airport:

Trip Planner

Search our weather history database for the weather conditions in past years. The results will help you decide how hot, cold, wet, or windy it might be!

Date:

Astronomy

Nov. 17, 2012 Rise Set
Actual Time 7:42 AM EST 5:08 PM EST
Civil Twilight 7:10 AM EST 5:41 PM EST
Nautical Twilight 6:34 AM EST 6:17 PM EST
Astronomical Twilight 5:59 AM EST 6:52 PM EST
Moon 11:27 AM EST (11/17) 9:18 PM EST (11/17)
Length of Visible Light 10h 30m
Length of Day
9h 25m
Waxing Crescent, 20% of the Moon is Illuminated
Nov 17
Waxing Crescent
Nov 20
First Quarter
Nov 28
Full
Dec 6
Last Quarter
Dec 13
New

Hourly Weather History & Observations

Time (EST) Temp. Windchill Dew Point Humidity Pressure Visibility Wind Dir Wind Speed Gust Speed Precip Events Conditions
12:15 AM 32.0 °F 27.5 °F 25.2 °F 76% 30.50 in 10.0 mi ESE 4.6 mph - N/A   Clear
12:35 AM 30.6 °F 25.8 °F 25.2 °F 80% 30.51 in 10.0 mi ESE 4.6 mph - N/A   Clear
12:55 AM 29.5 °F 22.5 °F 24.8 °F 83% 30.51 in 10.0 mi SE 6.9 mph - N/A   Clear
1:14 AM 30.9 °F 26.2 °F 25.9 °F 82% 30.52 in 10.0 mi SE 4.6 mph - N/A   Clear
1:34 AM 30.0 °F 26.5 °F 25.7 °F 84% 30.52 in 10.0 mi SE 3.5 mph - N/A   Clear
1:54 AM 29.8 °F - 25.5 °F 84% 30.52 in 10.0 mi Calm Calm - N/A   Clear
2:15 AM 28.8 °F 22.6 °F 25.7 °F 88% 30.52 in 10.0 mi SE 5.8 mph - N/A   Clear
2:34 AM 30.7 °F 24.9 °F 27.1 °F 86% 30.52 in 10.0 mi SE 5.8 mph - N/A   Clear
2:54 AM 30.9 °F 26.2 °F 27.5 °F 87% 30.52 in 10.0 mi ESE 4.6 mph - N/A   Clear
3:15 AM 30.0 °F 26.5 °F 27.0 °F 88% 30.52 in 10.0 mi SE 3.5 mph - N/A   Clear
3:34 AM 28.4 °F 23.3 °F 26.4 °F 92% 30.52 in 10.0 mi SE 4.6 mph - N/A   Clear
3:55 AM 30.2 °F 25.4 °F 28.8 °F 94% 30.52 in 10.0 mi SE 4.6 mph - N/A   Clear
4:14 AM 30.2 °F 25.4 °F 28.9 °F 95% 30.52 in 10.0 mi ESE 4.6 mph - N/A   Clear
4:35 AM 29.7 °F 24.7 °F 28.4 °F 95% 30.51 in 10.0 mi SE 4.6 mph - N/A   Clear
4:54 AM 29.5 °F 24.5 °F 28.8 °F 97% 30.51 in 7.0 mi SE 4.6 mph - N/A   Clear
5:15 AM 30.0 °F 25.2 °F 29.1 °F 96% 30.52 in 7.0 mi SE 4.6 mph - N/A   Clear
5:35 AM 29.7 °F 26.1 °F 28.9 °F 97% 30.52 in 5.0 mi ESE 3.5 mph - N/A   Clear
5:55 AM 28.9 °F 23.9 °F 28.2 °F 97% 30.53 in 5.0 mi SE 4.6 mph - N/A   Clear
6:15 AM 28.4 °F 23.3 °F 27.5 °F 96% 30.53 in 5.0 mi SE 4.6 mph - N/A   Scattered Clouds
6:35 AM 30.9 °F 27.5 °F 30.4 °F 98% 30.53 in 5.0 mi ESE 3.5 mph - N/A   Overcast
6:54 AM 31.8 °F 28.5 °F 31.1 °F 97% 30.54 in 5.0 mi SSE 3.5 mph - N/A   Overcast
7:15 AM 33.6 °F 30.6 °F 32.7 °F 96% 30.54 in 4.0 mi South 3.5 mph - N/A   Overcast
7:34 AM 34.2 °F 31.2 °F 33.1 °F 96% 30.54 in 4.0 mi SSE 3.5 mph - N/A   Overcast
7:55 AM 34.0 °F 29.8 °F 32.9 °F 96% 30.55 in 2.5 mi SSE 4.6 mph - N/A   Overcast
8:15 AM 34.2 °F 31.2 °F 33.3 °F 97% 30.55 in 1.8 mi SE 3.5 mph - N/A   Overcast
8:35 AM 34.0 °F 28.8 °F 33.3 °F 97% 30.55 in 1.2 mi SE 5.8 mph - N/A   Overcast
8:55 AM 34.2 °F 29.0 °F 33.8 °F 99% 30.55 in 0.8 mi SE 5.8 mph - N/A   Overcast
9:15 AM 34.0 °F 28.0 °F 33.8 °F 99% 30.56 in 0.2 mi SE 6.9 mph - N/A Fog Fog
9:35 AM 34.7 °F 28.8 °F 34.2 °F 98% 30.56 in 0.2 mi SE 6.9 mph - N/A Fog Fog
9:55 AM 35.2 °F 29.5 °F 34.9 °F 99% 30.56 in 0.5 mi SSE 6.9 mph - N/A Fog Fog
10:15 AM 35.8 °F 31.9 °F 35.6 °F 99% 30.56 in 0.8 mi SSE 4.6 mph - N/A   Overcast
10:35 AM 36.3 °F 32.5 °F 36.0 °F 99% 30.57 in 1.0 mi SE 4.6 mph - N/A   Overcast
10:55 AM 36.7 °F 32.9 °F 36.5 °F 99% 30.57 in 1.2 mi SE 4.6 mph - N/A   Overcast
11:15 AM 37.4 °F 32.8 °F 36.9 °F 98% 30.57 in 1.5 mi SE 5.8 mph - N/A   Overcast
11:34 AM 37.8 °F 34.2 °F 37.2 °F 98% 30.57 in 1.5 mi SSE 4.6 mph - N/A   Overcast
11:55 AM 38.7 °F 33.6 °F 37.6 °F 96% 30.56 in 1.5 mi SSE 6.9 mph - N/A   Overcast
12:15 PM 39.7 °F 36.5 °F 38.3 °F 95% 30.55 in 2.0 mi South 4.6 mph - N/A   Overcast
12:35 PM 40.1 °F 36.9 °F 38.1 °F 93% 30.55 in 3.0 mi South 4.6 mph - N/A   Overcast
12:55 PM 40.8 °F 36.2 °F 37.9 °F 89% 30.55 in 3.0 mi South 6.9 mph - N/A   Overcast
1:15 PM 40.6 °F 36.0 °F 37.4 °F 88% 30.54 in 4.0 mi SSE 6.9 mph - N/A   Overcast
1:35 PM 42.6 °F 39.9 °F 37.8 °F 83% 30.54 in 5.0 mi South 4.6 mph - N/A   Haze
1:55 PM 43.2 °F 41.5 °F 37.6 °F 81% 30.53 in 5.0 mi SE 3.5 mph - N/A   Haze
2:15 PM 43.3 °F 41.7 °F 37.2 °F 79% 30.53 in 5.0 mi ESE 3.5 mph - N/A   Haze
2:35 PM 43.9 °F - 37.0 °F 77% 30.53 in 7.0 mi Calm Calm - N/A   Clear
2:55 PM 43.5 °F 40.1 °F 37.4 °F 79% 30.53 in 5.0 mi East 5.8 mph - N/A   Haze
3:15 PM 43.7 °F 42.1 °F 37.8 °F 80% 30.53 in 7.0 mi East 3.5 mph - N/A   Clear
3:35 PM 44.1 °F 41.5 °F 37.8 °F 78% 30.52 in 7.0 mi East 4.6 mph - N/A   Clear
3:55 PM 44.8 °F - 37.6 °F 76% 30.53 in 7.0 mi Calm Calm - N/A   Clear
4:14 PM 45.0 °F - 37.4 °F 75% 30.53 in 7.0 mi Calm Calm - N/A   Clear
4:35 PM 45.9 °F - 35.1 °F 66% 30.53 in 10.0 mi Calm Calm - N/A   Clear
4:55 PM 42.4 °F - 36.9 °F 81% 30.52 in 7.0 mi Calm Calm - N/A   Clear
5:15 PM 40.5 °F - 35.8 °F 83% 30.52 in 7.0 mi Calm Calm - N/A   Clear
5:34 PM 38.8 °F 36.5 °F 34.9 °F 86% 30.52 in 7.0 mi SE 3.5 mph - N/A   Clear
5:54 PM 36.7 °F - 33.8 °F 89% 30.52 in 4.0 mi Calm Calm - N/A   Clear
6:14 PM 35.8 °F 33.0 °F 33.3 °F 91% 30.52 in 10.0 mi SE 3.5 mph - N/A   Clear
6:35 PM 34.5 °F 31.6 °F 32.4 °F 92% 30.52 in 7.0 mi SE 3.5 mph - N/A   Clear
6:54 PM 35.1 °F 32.2 °F 32.9 °F 92% 30.52 in 7.0 mi SE 3.5 mph - N/A   Clear
7:15 PM 34.0 °F 29.8 °F 32.0 °F 92% 30.51 in 7.0 mi SE 4.6 mph - N/A   Clear
7:35 PM 34.0 °F 31.0 °F 32.2 °F 93% 30.52 in 7.0 mi SE 3.5 mph - N/A   Clear
7:55 PM 33.8 °F 30.8 °F 32.2 °F 94% 30.51 in 7.0 mi ESE 3.5 mph - N/A   Clear
8:14 PM 34.0 °F 31.0 °F 32.2 °F 93% 30.51 in 7.0 mi ESE 3.5 mph - N/A   Clear
8:34 PM 32.2 °F 28.9 °F 31.8 °F 99% 30.51 in 5.0 mi SE 3.5 mph - N/A   Clear
8:54 PM 32.7 °F 29.6 °F 32.0 °F 97% 30.51 in 5.0 mi ESE 3.5 mph - N/A   Clear
9:14 PM 32.0 °F 27.5 °F 31.1 °F 96% 30.51 in 5.0 mi ESE 4.6 mph - N/A   Clear
9:54 PM 33.1 °F - 31.8 °F 95% 30.51 in 7.0 mi Calm Calm - N/A   Clear
10:15 PM 32.4 °F - 31.5 °F 96% 30.51 in 5.0 mi Calm Calm - N/A   Clear
10:34 PM 32.4 °F - 31.6 °F 97% 30.51 in 7.0 mi Calm Calm - N/A   Clear
10:55 PM 33.6 °F - 32.0 °F 94% 30.51 in 7.0 mi Calm Calm - N/A   Clear
11:15 PM 32.4 °F 29.1 °F 30.9 °F 94% 30.51 in 7.0 mi SE 3.5 mph - N/A   Clear
11:32 PM 32.7 °F - 31.8 °F 96% 30.51 in 7.0 mi Calm Calm - N/A   Clear
11:55 PM 36.7 °F - 32.0 °F 83% 30.51 in 7.0 mi Calm Calm - N/A   Clear